Time;durP1;ratioP1;P1;durP2;ratioP2;P2;SDS_P1;SDS_P2;PMS_P1;PMS_P2;Temp;Humidity;BMP_temperature;BMP_pressure;BME280_temperature;BME280_humidity;BME280_pressure;Samples;Min_cycle;Max_cycle;Signal;HPM_P1;HPM_P2
2023/08/09 00:02:14;;;;;;;12.38;11.13;;;;;;;13.97;100.00;101204.88;10503878;28;20024;-67
2023/08/09 00:07:14;;;;;;;12.98;10.50;;;;;;;13.91;100.00;101208.44;10503595;28;20039;-67
2023/08/09 00:12:14;;;;;;;14.32;11.77;;;;;;;13.83;100.00;101203.22;10503586;28;20048;-68
2023/08/09 00:17:15;;;;;;;16.15;11.50;;;;;;;13.78;100.00;101224.78;10503632;28;20033;-68
2023/08/09 00:22:15;;;;;;;14.27;12.05;;;;;;;13.75;100.00;101230.66;10503095;28;20040;-67
2023/08/09 00:27:16;;;;;;;17.63;10.55;;;;;;;13.71;100.00;101244.69;10502730;28;20036;-68
2023/08/09 00:32:16;;;;;;;13.35;11.52;;;;;;;13.75;100.00;101230.66;10502726;28;20491;-67
2023/08/09 00:37:16;;;;;;;16.40;11.85;;;;;;;13.73;100.00;101234.44;10502999;28;20028;-67
2023/08/09 00:42:17;;;;;;;14.57;11.48;;;;;;;13.73;100.00;101247.22;10501659;28;20052;-68
2023/08/09 00:47:18;;;;;;;14.68;13.20;;;;;;;13.68;100.00;101238.81;10502122;28;20087;-68
2023/08/09 00:52:19;;;;;;;12.65;10.32;;;;;;;13.67;100.00;101248.06;10501178;28;20111;-67
2023/08/09 00:57:20;;;;;;;10.27;9.05;;;;;;;13.66;100.00;101240.94;10500616;28;20064;-67
2023/08/09 01:02:20;;;;;;;17.42;12.38;;;;;;;13.66;100.00;101249.09;10500825;28;20032;-67
2023/08/09 01:07:31;;;;;;;16.73;11.25;;;;;;;13.72;100.00;101242.81;10501442;28;20444;-68
2023/08/09 01:12:36;;;;;;;16.35;10.77;;;;;;;13.72;100.00;101251.81;10468265;28;20082;-67
2023/08/09 01:17:36;;;;;;;13.45;11.00;;;;;;;13.71;100.00;101255.56;10499726;28;20035;-67
2023/08/09 01:22:39;;;;;;;16.85;10.30;;;;;;;13.73;100.00;101248.03;10482854;28;20110;-67
2023/08/09 01:27:39;;;;;;;12.40;10.95;;;;;;;13.78;100.00;101257.47;10499877;28;20498;-68
2023/08/09 01:32:40;;;;;;;17.25;12.25;;;;;;;13.79;100.00;101254.53;10501851;28;20082;-68
2023/08/09 01:37:43;;;;;;;23.73;9.77;;;;;;;13.78;100.00;101261.00;10499659;28;20024;-68
2023/08/09 01:42:43;;;;;;;11.82;10.32;;;;;;;13.80;100.00;101252.66;10498812;28;20440;-68
2023/08/09 01:47:44;;;;;;;14.77;9.50;;;;;;;13.78;100.00;101255.56;10500650;28;20032;-67
2023/08/09 01:52:44;;;;;;;10.27;9.18;;;;;;;13.78;100.00;101269.19;10498488;28;20039;-67
2023/08/09 01:57:46;;;;;;;14.73;11.82;;;;;;;13.77;100.00;101261.25;10502570;28;20033;-68
2023/08/09 02:02:47;;;;;;;11.07;9.93;;;;;;;13.77;100.00;101266.69;10482984;28;20111;-68
2023/08/09 02:07:47;;;;;;;9.40;7.75;;;;;;;13.77;100.00;101272.13;10497805;28;20037;-68
2023/08/09 02:12:48;;;;;;;13.50;10.40;;;;;;;13.76;100.00;101284.91;10498237;28;20055;-68
2023/08/09 02:17:49;;;;;;;13.88;8.82;;;;;;;13.76;100.00;101295.78;10498289;28;20064;-68
2023/08/09 02:22:49;;;;;;;9.60;8.63;;;;;;;13.76;100.00;101297.69;10497134;28;20024;-67
2023/08/09 02:27:50;;;;;;;13.40;9.70;;;;;;;13.77;100.00;101299.34;10499074;28;20437;-67
2023/08/09 02:32:50;;;;;;;10.45;9.38;;;;;;;13.81;100.00;101303.31;10497282;28;20036;-67
2023/08/09 02:37:51;;;;;;;9.63;8.55;;;;;;;13.82;100.00;101305.84;10497786;28;20501;-68
2023/08/09 02:42:51;;;;;;;13.40;8.95;;;;;;;13.79;100.00;101313.59;10496995;28;20052;-68
2023/08/09 02:47:51;;;;;;;9.85;8.85;;;;;;;13.76;100.00;101309.41;10498108;28;20353;-68
2023/08/09 02:52:52;;;;;;;9.82;7.20;;;;;;;13.79;100.00;101308.16;10497420;28;20074;-68
2023/08/09 02:57:52;;;;;;;8.73;7.40;;;;;;;13.79;100.00;101316.31;10497335;28;20055;-68
2023/08/09 03:02:53;;;;;;;19.10;8.60;;;;;;;13.81;100.00;101315.03;10497317;28;20041;-68
2023/08/09 03:07:53;;;;;;;11.10;9.10;;;;;;;13.81;100.00;101317.75;10495950;28;20033;-68
2023/08/09 03:12:54;;;;;;;13.82;10.27;;;;;;;13.79;100.00;101324.47;10496410;28;20375;-68
2023/08/09 03:17:54;;;;;;;12.23;9.90;;;;;;;13.77;100.00;101321.13;10496830;28;20039;-68
2023/08/09 03:22:57;;;;;;;10.68;9.57;;;;;;;13.78;100.00;101329.06;10495700;28;20133;-68
2023/08/09 03:27:58;;;;;;;10.15;8.98;;;;;;;13.72;100.00;101319.88;10495581;28;20492;-68
2023/08/09 03:32:58;;;;;;;13.30;10.10;;;;;;;13.75;100.00;101325.91;10496703;28;20056;-68
2023/08/09 03:37:59;;;;;;;17.58;11.18;;;;;;;13.76;100.00;101330.34;10495656;28;20151;-68
2023/08/09 03:42:59;;;;;;;11.98;10.45;;;;;;;13.72;100.00;101333.47;10496079;28;20052;-68
2023/08/09 03:47:59;;;;;;;11.18;9.48;;;;;;;13.76;100.00;101347.50;10496248;28;20036;-68
2023/08/09 03:53:00;;;;;;;12.05;10.05;;;;;;;13.76;100.00;101352.13;10496262;28;20428;-68
2023/08/09 03:58:00;;;;;;;13.32;10.20;;;;;;;13.72;100.00;101344.38;10495046;28;20039;-68
2023/08/09 04:03:02;;;;;;;11.20;9.95;;;;;;;13.67;100.00;101352.31;10481642;28;20047;-68
2023/08/09 04:08:03;;;;;;;9.48;8.57;;;;;;;13.62;100.00;101356.69;10504775;28;20028;-68
2023/08/09 04:13:03;;;;;;;13.02;9.48;;;;;;;13.65;100.00;101372.59;10504619;28;20090;-68
2023/08/09 04:18:04;;;;;;;11.40;9.05;;;;;;;13.73;100.00;101375.97;10502968;28;20036;-68
2023/08/09 04:23:04;;;;;;;10.52;9.43;;;;;;;13.79;100.00;101379.75;10501630;28;20514;-68
2023/08/09 04:28:05;;;;;;;11.45;10.25;;;;;;;13.83;100.00;101380.19;10503850;28;20055;-68
2023/08/09 04:33:06;;;;;;;12.90;10.02;;;;;;;13.91;100.00;101390.84;10503507;28;20071;-69
2023/08/09 04:38:06;;;;;;;12.57;10.50;;;;;;;14.02;100.00;101387.53;10503589;28;20143;-69
2023/08/09 04:43:06;;;;;;;10.57;9.52;;;;;;;14.13;100.00;101392.34;10502574;28;20057;-69
2023/08/09 04:48:07;;;;;;;12.65;8.48;;;;;;;14.25;100.00;101395.28;10502003;28;20045;-68
2023/08/09 04:53:07;;;;;;;10.93;9.85;;;;;;;14.36;100.00;101391.09;10501201;28;20555;-68
2023/08/09 04:58:08;;;;;;;9.38;8.38;;;;;;;14.42;100.00;101396.53;10501641;28;20487;-68
2023/08/09 05:03:08;;;;;;;10.50;9.55;;;;;;;14.54;100.00;101398.66;10502010;28;20054;-68
2023/08/09 05:08:08;;;;;;;11.90;9.52;;;;;;;14.63;100.00;101409.13;10501864;28;20043;-68
2023/08/09 05:13:09;;;;;;;13.65;8.88;;;;;;;14.72;100.00;101408.91;10500861;28;20109;-68
2023/08/09 05:18:09;;;;;;;13.98;8.60;;;;;;;14.84;100.00;101407.22;10500821;28;20068;-68
2023/08/09 05:23:10;;;;;;;10.85;9.15;;;;;;;14.82;100.00;101414.75;10501590;28;20036;-68
2023/08/09 05:28:10;;;;;;;28.73;10.43;;;;;;;14.79;100.00;101407.00;10500153;28;20079;-68
2023/08/09 05:33:10;;;;;;;10.68;7.97;;;;;;;14.83;100.00;101411.78;10499841;28;20040;-68
2023/08/09 05:38:11;;;;;;;13.05;7.20;;;;;;;15.03;100.00;101421.84;10501395;28;20488;-68
2023/08/09 05:43:11;;;;;;;6.78;6.10;;;;;;;15.14;100.00;101423.88;10499965;28;20076;-68
2023/08/09 05:48:12;;;;;;;9.48;7.88;;;;;;;15.62;100.00;101433.56;10498205;28;20101;-68
2023/08/09 05:53:12;;;;;;;9.75;7.03;;;;;;;15.56;100.00;101440.72;10514881;28;20036;-68
2023/08/09 05:58:14;;;;;;;7.68;6.88;;;;;;;15.66;100.00;101440.25;10497746;28;20106;-68
2023/08/09 06:03:14;;;;;;;6.18;5.50;;;;;;;16.11;100.00;101453.88;10497976;28;20036;-68
2023/08/09 06:08:15;;;;;;;12.32;7.30;;;;;;;18.00;100.00;101449.59;10480043;28;20048;-68
2023/08/09 06:13:15;;;;;;;9.35;7.13;;;;;;;17.32;100.00;101445.19;10498522;28;20036;-68
2023/08/09 06:18:16;;;;;;;8.23;6.25;;;;;;;16.62;100.00;101444.63;10499164;28;20433;-68
2023/08/09 06:23:16;;;;;;;7.38;6.07;;;;;;;16.24;100.00;101462.84;10499624;28;20162;-68
2023/08/09 06:28:17;;;;;;;15.43;6.25;;;;;;;16.40;100.00;101463.31;10495788;28;20031;-68
2023/08/09 06:33:18;;;;;;;7.97;6.25;;;;;;;18.14;100.00;101463.94;10497828;28;20036;-68
2023/08/09 06:38:19;;;;;;;10.77;6.55;;;;;;;19.31;100.00;101456.84;10497591;28;20032;-68
2023/08/09 06:43:20;;;;;;;6.75;5.10;;;;;;;19.88;100.00;101468.75;10496915;28;20106;-68
2023/08/09 06:48:20;;;;;;;6.95;5.35;;;;;;;20.52;100.00;101476.81;10497694;28;20060;-68
2023/08/09 06:53:21;;;;;;;7.30;4.63;;;;;;;21.32;100.00;101466.41;10497043;28;20028;-68
2023/08/09 06:58:21;;;;;;;5.68;4.50;;;;;;;22.04;100.00;101479.13;10497303;28;20470;-69
2023/08/09 07:03:21;;;;;;;9.43;2.85;;;;;;;21.90;100.00;101480.66;10497717;28;20041;-68
2023/08/09 07:08:22;;;;;;;7.40;2.78;;;;;;;20.71;100.00;101482.03;10498289;28;20024;-68
2023/08/09 07:13:22;;;;;;;4.60;3.42;;;;;;;20.32;100.00;101487.41;10497790;28;20101;-68
2023/08/09 07:18:25;;;;;;;10.77;2.40;;;;;;;21.01;100.00;101482.50;10496396;28;20066;-69
2023/08/09 07:23:25;;;;;;;4.72;3.03;;;;;;;20.09;100.00;101480.13;10496734;28;20037;-69
2023/08/09 07:28:26;;;;;;;1.85;1.75;;;;;;;19.23;100.00;101491.00;10495866;28;20036;-68
2023/08/09 07:33:26;;;;;;;4.88;3.00;;;;;;;19.05;100.00;101497.47;10479056;28;20534;-69
2023/08/09 07:38:26;;;;;;;2.08;1.95;;;;;;;19.89;100.00;101497.06;10501077;28;20036;-69
2023/08/09 07:43:27;;;;;;;3.15;2.55;;;;;;;19.42;100.00;101508.16;10504479;28;20503;-69
2023/08/09 07:48:27;;;;;;;3.30;3.03;;;;;;;18.90;100.00;101513.59;10505124;28;20039;-69
2023/08/09 07:53:28;;;;;;;4.43;3.55;;;;;;;20.87;100.00;101519.75;10503350;28;20029;-69
2023/08/09 07:58:28;;;;;;;3.53;3.22;;;;;;;21.03;100.00;101535.41;10502598;28;20029;-69
2023/08/09 08:03:29;;;;;;;3.55;3.22;;;;;;;20.05;100.00;101536.69;10502345;28;20476;-69
2023/08/09 08:08:29;;;;;;;8.48;4.35;;;;;;;19.60;100.00;101538.22;10504983;28;20033;-69
2023/08/09 08:13:30;;;;;;;2.55;2.40;;;;;;;19.32;100.00;101555.47;10503812;28;20511;-69
2023/08/09 08:18:31;;;;;;;3.92;2.85;;;;;;;20.62;100.00;101556.75;10503566;28;20040;-69
2023/08/09 08:23:32;;;;;;;3.60;3.30;;;;;;;21.58;100.00;101550.28;10502347;28;20033;-69
2023/08/09 08:28:32;;;;;;;16.17;3.28;;;;;;;20.57;100.00;101562.16;10503297;28;20120;-70
2023/08/09 08:33:33;;;;;;;3.40;2.85;;;;;;;22.40;100.00;101565.91;10501082;28;20357;-69
2023/08/09 08:38:33;;;;;;;4.18;1.95;;;;;;;24.17;100.00;101565.69;10501899;28;20029;-70
2023/08/09 08:43:34;;;;;;;4.50;2.60;;;;;;;24.80;100.00;101569.16;10502666;28;20056;-69
2023/08/09 08:48:35;;;;;;;12.45;2.88;;;;;;;25.27;100.00;101574.41;10500948;28;20036;-69
2023/08/09 08:53:35;;;;;;;5.25;2.42;;;;;;;23.65;100.00;101586.78;10501019;28;20376;-69
2023/08/09 08:58:35;;;;;;;1.60;1.50;;;;;;;23.77;100.00;101590.19;10499554;28;20036;-70
2023/08/09 09:03:36;;;;;;;2.42;2.20;;;;;;;22.57;100.00;101593.38;10516689;28;20361;-69
2023/08/09 09:08:44;;;;;;;4.05;2.15;;;;;;;21.67;100.00;101587.34;10501171;28;20064;-69
2023/08/09 09:13:46;;;;;;;9.75;2.13;;;;;;;21.71;100.00;101590.41;10482800;28;20480;-70
2023/08/09 09:18:48;;;;;;;2.22;2.10;;;;;;;24.13;100.00;101596.69;10516071;28;20032;-69
2023/08/09 09:23:49;;;;;;;3.92;2.00;;;;;;;25.17;100.00;101596.56;10500198;28;20036;-69
2023/08/09 09:28:50;;;;;;;9.60;3.38;;;;;;;25.20;100.00;101595.19;10501220;28;20036;-70
2023/08/09 09:33:51;;;;;;;3.40;1.70;;;;;;;26.07;100.00;101592.19;10501002;28;20044;-69
2023/08/09 09:38:53;;;;;;;7.00;2.58;;;;;;;26.62;100.00;101593.00;10499783;28;20039;-70
2023/08/09 09:43:53;;;;;;;4.28;2.08;;;;;;;26.51;100.00;101597.78;10501253;28;20105;-70
2023/08/09 09:49:01;;;;;;;1.52;1.42;;;;;;;27.15;100.00;101606.22;10499110;28;20086;-70
2023/08/09 09:54:04;;;;;;;1.88;1.77;;;;;;;26.65;100.00;101614.66;10499689;28;20032;-70
2023/08/09 09:59:05;;;;;;;1.75;1.65;;;;;;;25.29;100.00;101622.06;10498437;28;20082;-69
2023/08/09 10:04:06;;;;;;;7.22;2.40;;;;;;;26.71;100.00;101619.06;10514934;28;20419;-70
2023/08/09 10:09:08;;;;;;;3.72;2.03;;;;;;;27.07;100.00;101636.28;10499033;28;20114;-69
2023/08/09 10:14:08;;;;;;;6.10;2.20;;;;;;;27.62;100.00;101632.47;10514454;28;20025;-70
2023/08/09 10:19:12;;;;;;;1.27;1.23;;;;;;;27.89;100.00;101643.88;10496915;28;20047;-69
2023/08/09 10:24:13;;;;;;;2.05;1.95;;;;;;;27.42;100.00;101653.81;10496671;28;20441;-69
2023/08/09 10:29:14;;;;;;;2.75;2.53;;;;;;;27.15;100.00;101662.66;10498163;28;20036;-70
2023/08/09 10:34:15;;;;;;;2.85;1.90;;;;;;;26.37;100.00;101663.41;10495928;28;20048;-69
2023/08/09 10:39:17;;;;;;;6.22;1.88;;;;;;;26.72;100.00;101653.22;10496741;28;20028;-70
2023/08/09 10:44:17;;;;;;;1.52;1.42;;;;;;;27.00;100.00;101666.38;10496474;28;20055;-69
2023/08/09 10:49:17;;;;;;;2.35;2.15;;;;;;;27.87;100.00;101673.13;10512427;28;20487;-70
2023/08/09 10:54:19;;;;;;;5.85;2.75;;;;;;;28.64;100.00;101675.78;10496918;28;20066;-70
2023/08/09 10:59:24;;;;;;;3.35;1.75;;;;;;;27.77;100.00;101671.28;10479504;28;20459;-70
2023/08/09 11:04:25;;;;;;;1.07;1.07;;;;;;;27.85;100.00;101676.19;10495142;28;20036;-70
2023/08/09 11:09:26;;;;;;;3.88;2.30;;;;;;;26.60;100.00;101693.28;10495681;28;20491;-70
2023/08/09 11:14:29;;;;;;;2.65;2.00;;;;;;;24.77;100.00;101699.88;10495144;28;20033;-70
2023/08/09 11:19:31;;;;;;;1.25;1.25;;;;;;;24.60;100.00;101700.09;10494486;28;20024;-69
2023/08/09 11:24:32;;;;;;;2.42;2.15;;;;;;;24.24;100.00;101701.88;10496345;28;20033;-70
2023/08/09 11:29:32;;;;;;;3.28;1.80;;;;;;;25.92;100.00;101706.88;10494589;28;20123;-69
2023/08/09 11:34:33;;;;;;;1.90;1.77;;;;;;;25.50;100.00;101710.78;10478620;28;20068;-70
2023/08/09 11:39:33;;;;;;;7.45;2.10;;;;;;;26.32;100.00;101717.00;10496168;28;20070;-70
2023/08/09 11:44:34;;;;;;;2.00;1.88;;;;;;;27.33;100.00;101723.13;10494743;28;20048;-70
2023/08/09 11:49:34;;;;;;;3.22;1.75;;;;;;;26.13;100.00;101730.69;10495443;28;20099;-70
2023/08/09 11:54:36;;;;;;;3.60;2.03;;;;;;;26.86;100.00;101737.59;10512545;28;20094;-70
2023/08/09 11:59:38;;;;;;;8.43;2.45;;;;;;;26.40;100.00;101744.19;10495308;28;20021;-70
2023/08/09 12:04:39;;;;;;;1.63;1.30;;;;;;;26.87;100.00;101737.34;10496282;28;20028;-70
2023/08/09 12:09:40;;;;;;;4.38;2.10;;;;;;;26.87;100.00;101748.44;10496112;28;20033;-70
2023/08/09 12:14:46;;;;;;;1.90;1.25;;;;;;;26.25;100.00;101754.53;10495226;28;20436;-70
2023/08/09 12:19:47;;;;;;;3.03;1.90;;;;;;;26.38;100.00;101760.31;10494265;28;20036;-70
2023/08/09 12:24:47;;;;;;;9.77;2.10;;;;;;;26.55;100.00;101764.75;10499926;28;20357;-70
2023/08/09 12:29:48;;;;;;;2.00;1.90;;;;;;;26.23;100.00;101774.25;10502751;28;20033;-70
2023/08/09 12:34:49;;;;;;;2.70;1.92;;;;;;;26.99;100.00;101770.31;10501222;28;20476;-70
2023/08/09 12:39:50;;;;;;;6.15;1.85;;;;;;;26.99;100.00;101773.09;10503429;28;20040;-70
2023/08/09 12:44:50;;;;;;;5.35;2.05;;;;;;;26.69;100.00;101776.06;10502850;28;20407;-70
2023/08/09 12:49:50;;;;;;;6.28;1.98;;;;;;;25.28;100.00;101781.22;10485516;28;20040;-70
2023/08/09 12:54:51;;;;;;;8.52;1.77;;;;;;;26.03;100.00;101777.88;10484118;28;20090;-70
2023/08/09 12:59:51;;;;;;;0.90;0.90;;;;;;;26.38;100.00;101781.69;10500769;28;20147;-70
2023/08/09 13:04:52;;;;;;;7.82;2.83;;;;;;;26.56;100.00;101783.88;10501211;28;20059;-70
2023/08/09 13:09:52;;;;;;;2.45;2.25;;;;;;;27.15;100.00;101781.38;10501114;28;20029;-70
2023/08/09 13:14:53;;;;;;;5.22;1.70;;;;;;;27.38;97.55;101782.59;10500234;28;20127;-69
2023/08/09 13:19:53;;;;;;;10.77;1.92;;;;;;;27.16;96.98;101783.91;10500945;28;20468;-70
2023/08/09 13:24:54;;;;;;;4.53;1.40;;;;;;;26.79;98.42;101801.00;10499100;28;20078;-70
2023/08/09 13:29:55;;;;;;;7.30;2.72;;;;;;;26.21;100.00;101793.97;10500121;28;20029;-70
2023/08/09 13:34:55;;;;;;;1.42;1.33;;;;;;;25.81;95.44;101811.50;10497586;28;20040;-70
2023/08/09 13:39:55;;;;;;;2.55;1.52;;;;;;;26.08;97.68;101815.94;10499311;28;20190;-70
2023/08/09 13:44:56;;;;;;;1.50;1.40;;;;;;;25.28;100.00;101824.75;10499343;28;20460;-70
2023/08/09 13:49:57;;;;;;;5.93;1.30;;;;;;;25.32;100.00;101836.13;10497547;28;20037;-70
2023/08/09 13:54:58;;;;;;;5.07;1.52;;;;;;;25.52;100.00;101839.72;10499696;28;20452;-70
2023/08/09 14:00:00;;;;;;;2.30;2.10;;;;;;;25.55;100.00;101840.31;10498648;28;20044;-70
2023/08/09 14:05:01;;;;;;;1.90;1.40;;;;;;;25.65;100.00;101846.69;10499084;28;20107;-70
2023/08/09 14:10:01;;;;;;;7.57;2.45;;;;;;;25.38;100.00;101846.09;10497741;28;20100;-70
2023/08/09 14:15:01;;;;;;;3.83;1.45;;;;;;;24.94;100.00;101847.31;10463726;28;20133;-70
2023/08/09 14:20:02;;;;;;;1.63;1.35;;;;;;;24.98;100.00;101842.06;10498119;28;20112;-70
2023/08/09 14:25:03;;;;;;;1.63;1.52;;;;;;;24.89;100.00;101854.78;10481262;28;20412;-70
2023/08/09 14:30:04;;;;;;;2.92;1.85;;;;;;;24.46;98.37;101852.06;10498436;28;20361;-70
2023/08/09 14:35:09;;;;;;;4.72;1.63;;;;;;;24.16;100.00;101866.53;10496584;28;20040;-70
2023/08/09 14:40:09;;;;;;;1.38;1.33;;;;;;;24.05;100.00;101871.13;10496184;28;20346;-70
2023/08/09 14:45:10;;;;;;;1.83;1.55;;;;;;;23.85;100.00;101874.56;10499092;28;20056;-70
2023/08/09 14:50:11;;;;;;;1.80;1.70;;;;;;;23.70;100.00;101885.47;10497106;28;20031;-69
2023/08/09 14:55:11;;;;;;;2.72;1.50;;;;;;;23.35;100.00;101895.03;10497062;28;20048;-70
2023/08/09 15:00:13;;;;;;;7.93;1.50;;;;;;;23.47;100.00;101899.59;10496210;28;20471;-70
2023/08/09 15:05:14;;;;;;;3.42;2.17;;;;;;;23.40;97.29;101895.09;10497011;28;20028;-70
2023/08/09 15:10:15;;;;;;;5.30;1.00;;;;;;;23.08;100.00;101892.22;10495513;28;20033;-70
2023/08/09 15:15:15;;;;;;;1.40;0.95;;;;;;;22.80;99.18;101897.91;10496253;28;20033;-70
2023/08/09 15:20:16;;;;;;;1.75;1.35;;;;;;;22.68;100.00;101886.97;10495887;28;20056;-70
2023/08/09 15:25:20;;;;;;;7.22;1.33;;;;;;;22.69;100.00;101891.41;10496721;28;20045;-70
2023/08/09 15:30:21;;;;;;;1.38;1.27;;;;;;;22.54;100.00;101902.22;10497056;28;20033;-70
2023/08/09 15:35:22;;;;;;;2.38;1.83;;;;;;;22.43;100.00;101898.47;10495577;28;20037;-70
2023/08/09 15:40:22;;;;;;;2.20;1.70;;;;;;;22.03;100.00;101907.72;10496103;28;20048;-70
2023/08/09 15:45:23;;;;;;;1.75;1.60;;;;;;;21.80;100.00;101905.97;10494751;28;20084;-70
2023/08/09 15:50:23;;;;;;;2.72;1.48;;;;;;;21.55;100.00;101904.41;10495992;28;20040;-70
2023/08/09 15:55:24;;;;;;;3.63;1.13;;;;;;;21.43;100.00;101909.13;10494289;28;20041;-70
2023/08/09 16:00:24;;;;;;;7.05;1.55;;;;;;;21.52;100.00;101907.63;10500066;28;20040;-70
2023/08/09 16:05:26;;;;;;;7.43;0.95;;;;;;;21.42;100.00;101912.97;10502098;28;20032;-70
2023/08/09 16:10:26;;;;;;;6.13;1.38;;;;;;;20.82;100.00;101907.81;10503591;28;20024;-70
2023/08/09 16:15:26;;;;;;;3.88;1.88;;;;;;;20.25;100.00;101897.38;10503220;28;20032;-70
2023/08/09 16:20:27;;;;;;;4.32;1.25;;;;;;;19.85;100.00;101909.03;10502975;28;20157;-70
2023/08/09 16:25:27;;;;;;;0.93;0.93;;;;;;;19.41;100.00;101899.28;10503376;28;20128;-70
2023/08/09 16:30:28;;;;;;;8.48;1.40;;;;;;;19.09;100.00;101909.63;10502787;28;20427;-69
2023/08/09 16:35:29;;;;;;;1.08;1.05;;;;;;;19.02;100.00;101920.69;10484633;28;20029;-69
2023/08/09 16:40:29;;;;;;;1.63;1.52;;;;;;;18.73;100.00;101916.75;10502328;28;20036;-69
2023/08/09 16:45:30;;;;;;;8.77;1.90;;;;;;;18.56;100.00;101921.97;10501704;28;20056;-70
2023/08/09 16:50:30;;;;;;;7.82;2.13;;;;;;;18.45;100.00;101931.78;10501044;28;20075;-69
2023/08/09 16:55:32;;;;;;;1.08;0.90;;;;;;;18.43;100.00;101933.06;10502608;28;20033;-70
2023/08/09 17:00:33;;;;;;;1.13;1.13;;;;;;;18.36;100.00;101935.88;10500789;28;20033;-69
2023/08/09 17:05:42;;;;;;;8.55;1.63;;;;;;;18.23;100.00;101938.72;10517333;28;20393;-69
2023/08/09 17:10:43;;;;;;;2.25;1.75;;;;;;;18.25;100.00;101945.69;10500889;28;20036;-69
2023/08/09 17:15:43;;;;;;;7.40;1.23;;;;;;;18.32;100.00;101946.44;10484213;28;20457;-70
2023/08/09 17:20:43;;;;;;;2.63;1.33;;;;;;;18.22;100.00;101945.25;10501160;28;20074;-70
2023/08/09 17:25:44;;;;;;;1.85;1.25;;;;;;;18.05;100.00;101948.53;10500126;28;20075;-69
2023/08/09 17:30:46;;;;;;;3.08;1.60;;;;;;;18.02;100.00;101950.88;10499178;28;20032;-70
2023/08/09 17:35:46;;;;;;;4.80;1.70;;;;;;;18.17;100.00;101937.72;10481849;28;20033;-69
2023/08/09 17:40:47;;;;;;;1.50;1.25;;;;;;;18.43;100.00;101946.78;10500207;28;20028;-71
2023/08/09 17:45:47;;;;;;;1.45;1.35;;;;;;;18.54;100.00;101946.91;10502418;28;20439;-70
2023/08/09 17:50:49;;;;;;;3.10;1.95;;;;;;;18.58;100.00;101956.34;10499595;28;20056;-69
2023/08/09 17:55:50;;;;;;;2.60;1.35;;;;;;;18.62;100.00;101956.72;10498066;28;20063;-69
2023/08/09 18:00:50;;;;;;;1.67;1.55;;;;;;;18.59;100.00;101947.03;10499777;28;20064;-69
2023/08/09 18:05:51;;;;;;;9.52;1.77;;;;;;;18.53;100.00;101950.69;10497961;28;20078;-69
2023/08/09 18:10:53;;;;;;;3.63;1.70;;;;;;;18.45;100.00;101952.91;10497624;28;20033;-70
2023/08/09 18:15:54;;;;;;;2.50;1.65;;;;;;;18.41;100.00;101957.13;10481246;28;20468;-69
2023/08/09 18:20:54;;;;;;;5.60;1.83;;;;;;;18.31;100.00;101961.25;10497727;28;20064;-69
2023/08/09 18:25:55;;;;;;;3.17;1.30;;;;;;;18.30;100.00;101956.78;10498365;28;20037;-70
2023/08/09 18:30:55;;;;;;;2.15;1.92;;;;;;;18.31;100.00;101958.50;10498768;28;20035;-70
2023/08/09 18:35:56;;;;;;;1.67;1.38;;;;;;;18.29;100.00;101971.56;10498490;28;20047;-69
2023/08/09 18:40:56;;;;;;;1.30;1.20;;;;;;;18.23;100.00;101980.69;10497391;28;20032;-69
2023/08/09 18:45:57;;;;;;;2.58;1.95;;;;;;;18.09;100.00;101981.81;10498567;28;20495;-70
2023/08/09 18:50:58;;;;;;;5.80;1.65;;;;;;;17.84;100.00;101984.53;10496361;28;20041;-70
2023/08/09 18:55:58;;;;;;;1.63;1.25;;;;;;;17.50;100.00;101985.72;10496422;28;20101;-68
2023/08/09 19:00:59;;;;;;;1.50;1.17;;;;;;;17.27;100.00;101995.28;10498080;28;20452;-70
2023/08/09 19:05:59;;;;;;;4.45;2.17;;;;;;;17.11;100.00;101995.75;10497828;28;20036;-69
2023/08/09 19:11:00;;;;;;;1.60;1.45;;;;;;;16.91;100.00;101995.75;10497098;28;20028;-70
2023/08/09 19:16:00;;;;;;;1.65;1.33;;;;;;;16.73;100.00;101999.13;10513590;28;20036;-69
2023/08/09 19:21:02;;;;;;;1.73;1.63;;;;;;;16.62;100.00;102005.22;10497395;28;20124;-70
2023/08/09 19:26:03;;;;;;;9.25;1.77;;;;;;;16.59;100.00;101998.31;10495508;28;20124;-70
2023/08/09 19:31:04;;;;;;;2.15;1.40;;;;;;;16.59;100.00;102008.38;10497048;28;20039;-69
2023/08/09 19:36:07;;;;;;;3.22;1.88;;;;;;;16.50;100.00;101991.38;10503571;28;20395;-69
2023/08/09 19:41:08;;;;;;;5.40;1.50;;;;;;;16.32;100.00;102013.84;10522649;28;20361;-70
2023/08/09 19:46:08;;;;;;;16.45;1.83;;;;;;;16.16;100.00;102014.25;10508727;28;20052;-70
2023/08/09 19:51:09;;;;;;;5.22;1.60;;;;;;;15.99;100.00;102006.44;10505212;28;20037;-71
2023/08/09 19:56:09;;;;;;;6.28;2.03;;;;;;;15.86;100.00;102020.06;10502880;28;20045;-70
2023/08/09 20:01:10;;;;;;;5.63;1.52;;;;;;;15.71;100.00;102011.19;10503442;28;20090;-70
2023/08/09 20:06:11;;;;;;;1.88;1.42;;;;;;;15.63;100.00;102011.31;10503895;28;20040;-69
2023/08/09 20:11:12;;;;;;;8.95;1.83;;;;;;;15.59;100.00;102014.44;10503527;28;20495;-69
2023/08/09 20:16:12;;;;;;;7.18;3.42;;;;;;;15.46;100.00;102030.78;10504915;28;20032;-70
2023/08/09 20:21:14;;;;;;;4.75;3.03;;;;;;;15.33;100.00;102020.63;10503726;28;20032;-70
2023/08/09 20:26:14;;;;;;;6.28;2.28;;;;;;;15.24;100.00;102029.19;10502544;28;20111;-70
2023/08/09 20:31:15;;;;;;;10.35;2.72;;;;;;;15.18;100.00;102030.00;10502755;28;20029;-70
2023/08/09 20:36:15;;;;;;;7.32;1.88;;;;;;;15.11;100.00;102038.97;10503325;28;20093;-69
2023/08/09 20:41:16;;;;;;;13.75;2.70;;;;;;;15.03;100.00;102025.50;10500847;28;20036;-70
2023/08/09 20:46:16;;;;;;;7.10;5.55;;;;;;;14.94;100.00;102034.88;10519095;28;20051;-71
2023/08/09 20:51:16;;;;;;;10.13;2.58;;;;;;;14.88;100.00;102039.22;10502807;28;20178;-70
2023/08/09 20:56:17;;;;;;;5.57;2.47;;;;;;;14.82;100.00;102033.72;10501504;28;20044;-70
2023/08/09 21:01:18;;;;;;;4.70;2.58;;;;;;;14.78;100.00;102033.28;10501331;28;20021;-70
2023/08/09 21:06:20;;;;;;;7.70;3.47;;;;;;;14.68;100.00;102038.25;10500522;28;20047;-70
2023/08/09 21:11:20;;;;;;;9.88;3.55;;;;;;;14.62;100.00;102045.31;10501985;28;20033;-69
2023/08/09 21:16:21;;;;;;;1.98;1.75;;;;;;;14.64;100.00;102026.03;10503172;28;20383;-70
2023/08/09 21:21:21;;;;;;;5.18;2.80;;;;;;;14.58;100.00;102029.53;10499405;28;20498;-70
2023/08/09 21:26:22;;;;;;;7.85;2.88;;;;;;;14.58;100.00;102038.59;10499263;28;20123;-70
2023/08/09 21:31:22;;;;;;;3.55;2.17;;;;;;;14.53;100.00;102034.75;10501067;28;20031;-70
2023/08/09 21:36:22;;;;;;;4.75;2.75;;;;;;;14.50;100.00;102041.41;10500530;28;20472;-70
2023/08/09 21:41:24;;;;;;;6.43;3.25;;;;;;;14.50;100.00;102035.94;10499458;28;20033;-70
2023/08/09 21:46:24;;;;;;;2.80;2.60;;;;;;;14.53;100.00;102051.94;10500060;28;20048;-70
2023/08/09 21:51:25;;;;;;;6.57;2.95;;;;;;;14.58;100.00;102043.16;10500518;28;20048;-69
2023/08/09 21:56:25;;;;;;;4.55;2.38;;;;;;;14.67;100.00;102043.88;10499131;28;20063;-69
2023/08/09 22:01:27;;;;;;;6.40;3.08;;;;;;;14.75;100.00;102044.59;10497490;28;20032;-69
2023/08/09 22:06:28;;;;;;;5.88;2.92;;;;;;;14.65;100.00;102033.19;10499381;28;20028;-69
2023/08/09 22:11:28;;;;;;;3.78;2.33;;;;;;;14.52;100.00;102043.97;10498903;28;20036;-69
2023/08/09 22:16:28;;;;;;;15.10;4.25;;;;;;;14.43;100.00;102052.25;10483508;28;20086;-69
2023/08/09 22:21:29;;;;;;;5.22;3.05;;;;;;;14.35;100.00;102043.34;10499136;28;20064;-69
2023/08/09 22:26:29;;;;;;;2.17;2.03;;;;;;;14.30;100.00;102045.81;10499283;28;20041;-69
2023/08/09 22:31:30;;;;;;;6.93;2.70;;;;;;;14.22;100.00;102048.66;10480757;28;20433;-69
2023/08/09 22:36:31;;;;;;;4.35;2.33;;;;;;;14.18;100.00;102054.50;10497769;28;20046;-69
2023/08/09 22:41:31;;;;;;;5.00;3.60;;;;;;;14.14;100.00;102055.94;10497818;28;20384;-69